Time;durP1;ratioP1;P1;durP2;ratioP2;P2;SDS_P1;SDS_P2;PMS_P1;PMS_P2;Temp;Humidity;BMP_temperature;BMP_pressure;BME280_temperature;BME280_humidity;BME280_pressure;Samples;Min_cycle;Max_cycle;Signal;HPM_P1;HPM_P2
2022/06/09 00:01:27;;;;;;;;;;;;;;;20.19;89.57;99941.16;5027620;28;19918;-66
2022/06/09 00:03:52;;;;;;;;;;;;;;;20.07;90.23;99941.88;5036248;28;20403;-66
2022/06/09 00:06:18;;;;;;;;;;;;;;;20.17;89.50;99951.72;5035010;28;19912;-66
2022/06/09 00:08:46;;;;;;;;;;;;;;;20.21;89.42;99946.94;5043050;28;19921;-66
2022/06/09 00:11:15;;;;;;;;;;;;;;;20.25;88.65;99953.03;5036627;28;19916;-66
2022/06/09 00:13:41;;;;;;;;;;;;;;;20.18;89.13;99950.50;5041180;28;20448;-66
2022/06/09 00:16:07;;;;;;;;;;;;;;;20.14;89.41;99955.31;5036458;28;19913;-66
2022/06/09 00:18:32;;;;;;;;;;;;;;;20.18;89.29;99955.97;5035570;28;20003;-66
2022/06/09 00:20:58;;;;;;;;;;;;;;;20.11;89.74;99950.72;5032957;28;20083;-66
2022/06/09 00:23:23;;;;;;;;;;;;;;;20.01;90.30;99941.66;5039247;28;19943;-66
2022/06/09 00:25:49;;;;;;;;;;;;;;;19.99;90.93;99952.25;5035510;28;19924;-66
2022/06/09 00:28:15;;;;;;;;;;;;;;;20.05;89.99;99947.00;5042517;28;19913;-66
2022/06/09 00:30:41;;;;;;;;;;;;;;;20.02;90.35;99947.84;5038107;28;19924;-66
2022/06/09 00:33:06;;;;;;;;;;;;;;;19.99;90.33;99943.28;5037116;28;19913;-66
2022/06/09 00:35:31;;;;;;;;;;;;;;;19.94;90.75;99932.88;5038328;28;19920;-66
2022/06/09 00:37:57;;;;;;;;;;;;;;;19.86;91.68;99951.44;5036115;28;19963;-66
2022/06/09 00:40:22;;;;;;;;;;;;;;;19.92;91.45;99952.44;5034927;28;20401;-66
2022/06/09 00:42:48;;;;;;;;;;;;;;;19.93;91.14;99945.78;5039680;28;19955;-66
2022/06/09 00:45:20;;;;;;;;;;;;;;;19.87;91.43;99944.78;5042679;28;19917;-66
2022/06/09 00:47:46;;;;;;;;;;;;;;;19.77;92.35;99940.38;5035072;28;19952;-66
2022/06/09 00:50:15;;;;;;;;;;;;;;;19.89;91.38;99944.34;5044163;28;19964;-66
2022/06/09 00:52:44;;;;;;;;;;;;;;;19.80;91.77;99936.81;5025955;28;19913;-66
2022/06/09 00:55:14;;;;;;;;;;;;;;;19.79;91.89;99946.19;5034253;28;19923;-66
2022/06/09 00:57:41;;;;;;;;;;;;;;;19.84;91.63;99947.63;5037063;28;19913;-66
2022/06/09 01:00:10;;;;;;;;;;;;;;;19.83;92.00;99951.53;5034917;28;19932;-66
2022/06/09 01:02:36;;;;;;;;;;;;;;;19.81;91.96;99949.25;5040092;28;19913;-66
2022/06/09 01:05:04;;;;;;;;;;;;;;;19.84;91.92;99947.63;5036420;28;19955;-66
2022/06/09 01:07:33;;;;;;;;;;;;;;;19.83;91.86;99951.53;5039816;28;20380;-66
2022/06/09 01:09:58;;;;;;;;;;;;;;;19.79;92.31;99954.38;5036384;28;20543;-66
2022/06/09 01:12:24;;;;;;;;;;;;;;;19.89;91.50;99952.53;5026325;28;19920;-66
2022/06/09 01:14:49;;;;;;;;;;;;;;;19.92;91.35;99940.75;5036887;28;19920;-66
2022/06/09 01:17:15;;;;;;;;;;;;;;;19.78;91.62;99937.22;5046619;28;19913;-66
2022/06/09 01:19:48;;;;;;;;;;;;;;;19.75;92.34;99940.06;5041444;28;20332;-66
2022/06/09 01:22:17;;;;;;;;;;;;;;;19.67;92.73;99934.03;5035973;28;20277;-66
2022/06/09 01:24:45;;;;;;;;;;;;;;;19.67;92.89;99944.19;5041178;28;19925;-66
2022/06/09 01:27:13;;;;;;;;;;;;;;;19.69;92.79;99945.28;5026823;28;19917;-66
2022/06/09 01:29:58;;;;;;;;;;;;;;;19.75;92.20;99943.56;5040778;28;20024;-66
2022/06/09 01:32:26;;;;;;;;;;;;;;;19.81;91.68;99938.31;5041733;28;19996;-66
2022/06/09 01:34:57;;;;;;;;;;;;;;;19.79;91.35;99944.22;5040146;28;19916;-66
2022/06/09 01:37:27;;;;;;;;;;;;;;;19.71;91.85;99948.34;5038229;28;19966;-66
2022/06/09 01:39:58;;;;;;;;;;;;;;;19.67;92.46;99939.50;5025893;28;19913;-66
2022/06/09 01:42:29;;;;;;;;;;;;;;;19.65;92.87;99936.44;5037465;28;19912;-66
2022/06/09 01:44:58;;;;;;;;;;;;;;;19.66;93.08;99935.25;5039220;28;20018;-66
2022/06/09 01:47:27;;;;;;;;;;;;;;;19.57;93.60;99939.78;5036796;28;19920;-66
2022/06/09 01:49:55;;;;;;;;;;;;;;;19.58;93.61;99941.31;5043852;28;19923;-66
2022/06/09 01:52:21;;;;;;;;;;;;;;;19.61;93.88;99945.91;5043809;28;19936;-66
2022/06/09 01:54:47;;;;;;;;;;;;;;;19.60;93.57;99944.41;5039383;28;20013;-66
2022/06/09 01:57:17;;;;;;;;;;;;;;;19.63;93.27;99938.81;5034495;28;19988;-66
2022/06/09 01:59:48;;;;;;;;;;;;;;;19.56;93.76;99935.53;5037453;28;19956;-66
2022/06/09 02:02:19;;;;;;;;;;;;;;;19.59;93.00;99932.69;5027216;28;19920;-66
2022/06/09 02:04:54;;;;;;;;;;;;;;;19.65;92.15;99933.69;5036214;28;19917;-66
2022/06/09 02:07:20;;;;;;;;;;;;;;;19.49;93.94;99927.53;5041483;28;20006;-66
2022/06/09 02:09:45;;;;;;;;;;;;;;;19.55;93.57;99929.28;5022644;28;20008;-66
2022/06/09 02:12:13;;;;;;;;;;;;;;;19.54;93.52;99937.94;5041300;28;19999;-66
2022/06/09 02:14:40;;;;;;;;;;;;;;;19.51;93.58;99930.59;5033732;28;20396;-67
2022/06/09 02:17:07;;;;;;;;;;;;;;;19.61;93.02;99933.03;5041076;28;19913;-66
2022/06/09 02:19:32;;;;;;;;;;;;;;;19.56;92.70;99941.00;5038519;28;19919;-66
2022/06/09 02:21:58;;;;;;;;;;;;;;;19.55;92.24;99951.16;5026170;28;19913;-66
2022/06/09 02:24:23;;;;;;;;;;;;;;;19.37;93.68;99939.19;5034739;28;19925;-66
2022/06/09 02:26:49;;;;;;;;;;;;;;;19.33;94.10;99947.47;5036702;28;19916;-66
2022/06/09 02:29:14;;;;;;;;;;;;;;;19.30;94.44;99948.28;5045714;28;20332;-66
2022/06/09 02:31:40;;;;;;;;;;;;;;;19.28;94.60;99947.22;5038050;28;19919;-66
2022/06/09 02:34:06;;;;;;;;;;;;;;;19.28;94.67;99952.69;5041410;28;19913;-66
2022/06/09 02:36:31;;;;;;;;;;;;;;;19.33;93.33;99950.22;5043727;28;19913;-66
2022/06/09 02:38:56;;;;;;;;;;;;;;;19.21;93.85;99956.34;5026525;28;19923;-66
2022/06/09 02:41:22;;;;;;;;;;;;;;;19.26;94.00;99964.00;5041087;28;19920;-66
2022/06/09 02:43:47;;;;;;;;;;;;;;;19.23;94.04;99961.38;5054963;28;19971;-66
2022/06/09 02:46:13;;;;;;;;;;;;;;;19.18;94.77;99962.66;5031557;28;19913;-66
2022/06/09 02:48:40;;;;;;;;;;;;;;;19.12;94.87;99966.34;5036664;28;19960;-66
2022/06/09 02:51:16;;;;;;;;;;;;;;;19.06;95.47;99970.78;5034807;28;19995;-66
2022/06/09 02:53:41;;;;;;;;;;;;;;;19.04;95.90;99967.72;5034847;28;20027;-66
2022/06/09 02:56:07;;;;;;;;;;;;;;;19.00;95.87;99967.81;5043649;28;20027;-67
2022/06/09 02:58:32;;;;;;;;;;;;;;;19.09;95.12;99967.19;5040464;28;19959;-66
2022/06/09 03:00:57;;;;;;;;;;;;;;;19.07;95.63;99967.63;5036598;28;19920;-66
2022/06/09 03:03:23;;;;;;;;;;;;;;;19.08;94.94;99962.94;5026709;28;20373;-66
2022/06/09 03:05:48;;;;;;;;;;;;;;;19.11;94.95;99968.31;5041197;28;19934;-66
2022/06/09 03:08:14;;;;;;;;;;;;;;;19.15;94.12;99974.44;5021799;28;19956;-66
2022/06/09 03:10:39;;;;;;;;;;;;;;;19.04;94.84;99984.88;5033058;28;19916;-66
2022/06/09 03:13:05;;;;;;;;;;;;;;;19.01;94.65;99985.72;5021775;28;19913;-66
2022/06/09 03:15:30;;;;;;;;;;;;;;;18.99;95.28;99987.34;5031489;28;19975;-66
2022/06/09 03:17:56;;;;;;;;;;;;;;;18.99;95.25;99984.63;5036357;28;19927;-66
2022/06/09 03:20:23;;;;;;;;;;;;;;;19.00;94.65;99981.47;5035622;28;19923;-66
2022/06/09 03:22:49;;;;;;;;;;;;;;;18.99;94.77;99979.91;5038759;28;20376;-66
2022/06/09 03:25:15;;;;;;;;;;;;;;;19.01;94.90;99982.25;5036876;28;19924;-66
2022/06/09 03:27:40;;;;;;;;;;;;;;;18.99;94.76;99984.63;5037445;28;19913;-66
2022/06/09 03:30:06;;;;;;;;;;;;;;;18.93;94.81;99989.81;5039798;28;19912;-66
2022/06/09 03:32:32;;;;;;;;;;;;;;;18.99;94.20;99988.09;5038296;28;19958;-66
2022/06/09 03:34:57;;;;;;;;;;;;;;;18.95;94.26;99989.41;5034654;28;19917;-66
2022/06/09 03:37:23;;;;;;;;;;;;;;;18.86;94.93;99996.22;5033452;28;19917;-66
2022/06/09 03:39:48;;;;;;;;;;;;;;;18.94;93.97;99994.09;5040678;28;19917;-66
2022/06/09 03:42:14;;;;;;;;;;;;;;;18.82;94.81;99997.50;5037206;28;19917;-67
2022/06/09 03:44:40;;;;;;;;;;;;;;;18.85;95.00;99991.19;5043487;28;19921;-66
2022/06/09 03:47:05;;;;;;;;;;;;;;;18.89;94.06;99994.63;5038305;28;19978;-66
2022/06/09 03:49:31;;;;;;;;;;;;;;;18.89;94.28;99989.91;5045543;28;20019;-66
2022/06/09 03:51:56;;;;;;;;;;;;;;;18.84;94.36;99993.16;5049124;28;19917;-66
2022/06/09 03:54:21;;;;;;;;;;;;;;;18.91;94.13;99992.22;5042934;28;19913;-66
2022/06/09 03:56:48;;;;;;;;;;;;;;;18.86;94.19;99993.50;5031594;28;19970;-66
2022/06/09 03:59:13;;;;;;;;;;;;;;;18.97;93.17;100001.41;5036313;28;19913;-66
2022/06/09 04:01:38;;;;;;;;;;;;;;;18.90;92.98;100002.38;5034239;28;19967;-66
2022/06/09 04:04:04;;;;;;;;;;;;;;;18.91;93.02;100001.16;5042070;28;20003;-66
2022/06/09 04:06:30;;;;;;;;;;;;;;;18.92;92.72;100005.44;5038628;28;19920;-66
2022/06/09 04:08:55;;;;;;;;;;;;;;;18.89;93.09;100011.00;5030404;28;19916;-66
2022/06/09 04:11:22;;;;;;;;;;;;;;;18.87;92.66;100000.47;5024224;28;20014;-66
2022/06/09 04:13:47;;;;;;;;;;;;;;;18.82;92.84;100009.19;5043025;28;19920;-66
2022/06/09 04:16:15;;;;;;;;;;;;;;;18.74;93.79;100004.31;5042406;28;19928;-66
2022/06/09 04:18:41;;;;;;;;;;;;;;;18.71;93.95;100011.41;5041140;28;19948;-66
2022/06/09 04:21:06;;;;;;;;;;;;;;;18.75;94.13;100011.31;5040993;28;20484;-66
2022/06/09 04:23:31;;;;;;;;;;;;;;;18.75;94.07;100012.09;5038023;28;20026;-66
2022/06/09 04:25:57;;;;;;;;;;;;;;;18.66;94.65;100022.81;5040484;28;20015;-66
2022/06/09 04:28:22;;;;;;;;;;;;;;;18.74;94.10;100017.94;5041533;28;19921;-66
2022/06/09 04:30:48;;;;;;;;;;;;;;;18.74;93.70;100015.22;5049091;28;20015;-66
2022/06/09 04:33:13;;;;;;;;;;;;;;;18.66;94.97;100016.59;5043473;28;19923;-66
2022/06/09 04:35:38;;;;;;;;;;;;;;;18.69;94.85;100018.47;5039656;28;19912;-66
2022/06/09 04:38:04;;;;;;;;;;;;;;;18.74;94.41;100015.22;5038988;28;20003;-66
2022/06/09 04:40:34;;;;;;;;;;;;;;;18.71;94.44;100016.88;5042261;28;20378;-66
2022/06/09 04:43:00;;;;;;;;;;;;;;;18.67;95.42;100015.41;5047979;28;20328;-66
2022/06/09 04:45:26;;;;;;;;;;;;;;;18.70;95.11;100025.44;5038840;28;19916;-66
2022/06/09 04:47:52;;;;;;;;;;;;;;;18.72;94.93;100029.28;5042564;28;20305;-66
2022/06/09 04:50:18;;;;;;;;;;;;;;;18.72;95.10;100021.13;5032123;28;20008;-66
2022/06/09 04:52:44;;;;;;;;;;;;;;;18.72;95.42;100028.53;5029525;28;20003;-66
2022/06/09 04:55:09;;;;;;;;;;;;;;;18.83;94.70;100031.78;5026254;28;20447;-66
2022/06/09 04:57:34;;;;;;;;;;;;;;;18.83;95.04;100035.25;5035316;28;19913;-66
2022/06/09 05:00:00;;;;;;;;;;;;;;;18.85;94.63;100027.41;5037385;28;20011;-66
2022/06/09 05:02:32;;;;;;;;;;;;;;;18.81;95.06;100042.38;5039891;28;19916;-66
2022/06/09 05:04:57;;;;;;;;;;;;;;;18.85;95.00;100043.06;5037437;28;19947;-66
2022/06/09 05:07:23;;;;;;;;;;;;;;;18.77;95.71;100041.66;5035452;28;19920;-66
2022/06/09 05:09:49;;;;;;;;;;;;;;;18.81;95.92;100043.09;5035273;28;20011;-66
2022/06/09 05:12:15;;;;;;;;;;;;;;;18.93;95.47;100049.84;5023171;28;19966;-67
2022/06/09 05:14:44;;;;;;;;;;;;;;;18.87;96.24;100046.88;5034631;28;19912;-66
2022/06/09 05:17:09;;;;;;;;;;;;;;;18.83;96.91;100042.72;5043301;28;20368;-66
2022/06/09 05:19:35;;;;;;;;;;;;;;;18.91;96.45;100052.28;5040531;28;19970;-66
2022/06/09 05:22:00;;;;;;;;;;;;;;;18.87;96.69;100046.13;5036292;28;19913;-66
2022/06/09 05:24:25;;;;;;;;;;;;;;;18.80;97.56;100054.47;5023677;28;20705;-66
2022/06/09 05:26:51;;;;;;;;;;;;;;;18.84;97.80;100055.16;5035225;28;19913;-66
2022/06/09 05:29:16;;;;;;;;;;;;;;;18.83;98.06;100053.63;5036444;28;19956;-67
2022/06/09 05:31:43;;;;;;;;;;;;;;;18.79;98.29;100061.13;5045957;28;19917;-67
2022/06/09 05:34:09;;;;;;;;;;;;;;;18.82;98.56;100063.75;5013242;28;19919;-66
2022/06/09 05:36:35;;;;;;;;;;;;;;;18.90;97.87;100070.59;5042804;28;20232;-66
2022/06/09 05:47:12;;;;;;;;;;;;;;;18.91;98.41;100079.56;5034697;28;19917;-67
2022/06/09 05:49:37;;;;;;;;;;;;;;;18.93;98.59;100085.34;5026723;28;19939;-66
2022/06/09 05:52:03;;;;;;;;;;;;;;;18.96;98.24;100089.97;5038730;28;20016;-66
2022/06/09 05:54:28;;;;;;;;;;;;;;;18.97;98.00;100094.22;5044565;28;19913;-66
2022/06/09 05:56:54;;;;;;;;;;;;;;;18.92;98.59;100098.22;5044628;28;19912;-66
2022/06/09 05:59:19;;;;;;;;;;;;;;;18.88;98.96;100091.31;5023841;28;19931;-66
2022/06/09 06:01:45;;;;;;;;;;;;;;;18.93;98.58;100097.03;5041763;28;20397;-66
2022/06/09 06:04:11;;;;;;;;;;;;;;;18.95;99.08;100101.31;5045606;28;19916;-67
2022/06/09 06:06:36;;;;;;;;;;;;;;;19.04;97.80;100106.94;5042461;28;19921;-66
2022/06/09 06:09:04;;;;;;;;;;;;;;;18.99;98.40;100107.47;5021934;28;19913;-66
2022/06/09 06:11:29;;;;;;;;;;;;;;;18.91;99.21;100104.13;5024170;28;19959;-66
2022/06/09 06:13:55;;;;;;;;;;;;;;;19.01;98.23;100122.19;5027106;28;19912;-66
2022/06/09 06:16:21;;;;;;;;;;;;;;;18.98;98.60;100125.78;5045837;28;19927;-66
2022/06/09 06:18:47;;;;;;;;;;;;;;;18.88;99.59;100124.06;5045754;28;19916;-66
2022/06/09 06:21:12;;;;;;;;;;;;;;;18.96;99.23;100130.91;5046935;28;19919;-66
2022/06/09 06:23:40;;;;;;;;;;;;;;;18.97;99.25;100134.41;5027774;28;19932;-66
2022/06/09 06:26:05;;;;;;;;;;;;;;;18.99;99.23;100142.94;5042519;28;19917;-66
2022/06/09 06:28:31;;;;;;;;;;;;;;;19.02;99.18;100140.13;5027031;28;19913;-67
2022/06/09 06:30:59;;;;;;;;;;;;;;;18.96;99.90;100152.75;5020093;28;19917;-67
2022/06/09 06:33:25;;;;;;;;;;;;;;;18.93;100.00;100148.88;5040076;28;20011;-66
2022/06/09 06:35:51;;;;;;;;;;;;;;;18.99;100.00;100146.41;5036392;28;20445;-67
2022/06/09 06:38:16;;;;;;;;;;;;;;;19.01;100.00;100160.41;5044518;28;19920;-67
2022/06/09 06:40:41;;;;;;;;;;;;;;;19.04;100.00;100156.84;5039831;28;19913;-66
2022/06/09 06:43:07;;;;;;;;;;;;;;;19.21;99.60;100158.41;5046775;28;20011;-66
2022/06/09 06:45:32;;;;;;;;;;;;;;;19.20;99.23;100167.78;5042660;28;20277;-66
2022/06/09 06:47:58;;;;;;;;;;;;;;;19.23;98.83;100171.63;5026256;28;19920;-66
2022/06/09 06:50:24;;;;;;;;;;;;;;;19.23;98.66;100171.63;5021690;28;19921;-66
2022/06/09 06:52:49;;;;;;;;;;;;;;;19.32;97.79;100183.53;5036383;28;20046;-67
2022/06/09 06:55:16;;;;;;;;;;;;;;;19.33;97.32;100187.03;5037490;28;20011;-66
2022/06/09 06:57:41;;;;;;;;;;;;;;;19.44;96.86;100191.06;5042894;28;19914;-66
2022/06/09 07:00:08;;;;;;;;;;;;;;;19.42;96.85;100198.13;5041624;28;19924;-66
2022/06/09 07:02:33;;;;;;;;;;;;;;;19.47;96.28;100195.66;5042704;28;19936;-66
2022/06/09 07:04:59;;;;;;;;;;;;;;;19.64;94.34;100193.72;5036618;28;19920;-66
2022/06/09 07:07:25;;;;;;;;;;;;;;;19.58;95.01;100204.41;5040663;28;19924;-66
2022/06/09 07:09:50;;;;;;;;;;;;;;;19.58;94.29;100193.47;5037205;28;19920;-66
2022/06/09 07:12:16;;;;;;;;;;;;;;;19.67;94.04;100206.50;5032539;28;20240;-68
2022/06/09 07:14:41;;;;;;;;;;;;;;;19.76;92.15;100201.97;5039979;28;19913;-66
2022/06/09 07:17:06;;;;;;;;;;;;;;;19.71;91.52;100202.50;5035362;28;20007;-66
2022/06/09 07:19:32;;;;;;;;;;;;;;;19.69;91.28;100210.38;5041176;28;19974;-66
2022/06/09 07:21:58;;;;;;;;;;;;;;;19.74;90.66;100209.84;5031974;28;20313;-66
2022/06/09 07:24:24;;;;;;;;;;;;;;;19.78;90.29;100209.78;5048627;28;19921;-66
2022/06/09 07:26:49;;;;;;;;;;;;;;;19.86;89.18;100216.59;5047819;28;20008;-66
2022/06/09 07:29:14;;;;;;;;;;;;;;;19.85;88.63;100227.94;5045886;28;19964;-66
2022/06/09 07:31:40;;;;;;;;;;;;;;;19.79;89.19;100220.28;5046643;28;20416;-67
2022/06/09 07:34:06;;;;;;;;;;;;;;;19.69;89.53;100229.50;5050547;28;20267;-66
2022/06/09 07:36:31;;;;;;;;;;;;;;;19.65;89.75;100230.75;5047989;28;19952;-66
2022/06/09 07:38:56;;;;;;;;;;;;;;;19.67;89.23;100239.31;5048381;28;19971;-66
2022/06/09 07:41:22;;;;;;;;;;;;;;;19.57;90.24;100241.09;5027558;28;20321;-66
2022/06/09 07:43:48;;;;;;;;;;;;;;;19.76;89.39;100242.22;5031125;28;19928;-66
2022/06/09 07:46:14;;;;;;;;;;;;;;;19.88;88.89;100246.25;5043476;28;20330;-66
2022/06/09 07:48:40;;;;;;;;;;;;;;;19.95;88.79;100251.53;5026819;28;19995;-67
2022/06/09 07:51:05;;;;;;;;;;;;;;;20.04;87.92;100247.00;5043514;28;19952;-66
2022/06/09 07:53:31;;;;;;;;;;;;;;;19.98;87.53;100254.16;5023770;28;20011;-66
2022/06/09 07:55:56;;;;;;;;;;;;;;;20.00;86.58;100253.75;5042203;28;19928;-66
2022/06/09 07:58:22;;;;;;;;;;;;;;;19.93;86.64;100257.44;5024974;28;19974;-66
2022/06/09 08:00:48;;;;;;;;;;;;;;;20.00;86.51;100268.19;5041811;28;19912;-66
2022/06/09 08:03:19;;;;;;;;;;;;;;;20.03;86.35;100278.28;5047070;28;19951;-67
2022/06/09 08:05:44;;;;;;;;;;;;;;;20.02;86.45;100281.41;5042322;28;19917;-66
2022/06/09 08:08:09;;;;;;;;;;;;;;;20.03;86.11;100274.78;5050387;28;19919;-66
2022/06/09 08:10:36;;;;;;;;;;;;;;;20.08;85.26;100277.75;5043516;28;19919;-67
2022/06/09 08:13:02;;;;;;;;;;;;;;;20.04;85.66;100281.75;5043992;28;19923;-66
2022/06/09 08:15:29;;;;;;;;;;;;;;;19.92;86.02;100277.75;5043112;28;19967;-66
2022/06/09 08:17:56;;;;;;;;;;;;;;;19.89;86.65;100286.03;5044759;28;20440;-66
2022/06/09 08:20:21;;;;;;;;;;;;;;;20.07;86.16;100289.91;5039306;28;19928;-66
2022/06/09 08:22:47;;;;;;;;;;;;;;;20.16;86.04;100292.78;5043672;28;19917;-66
2022/06/09 08:25:13;;;;;;;;;;;;;;;20.35;84.03;100293.91;5039794;28;20372;-66
2022/06/09 08:27:39;;;;;;;;;;;;;;;20.37;84.09;100305.19;5045156;28;19956;-66
2022/06/09 08:30:05;;;;;;;;;;;;;;;20.37;84.57;100311.44;5051744;28;20367;-66
2022/06/09 08:32:31;;;;;;;;;;;;;;;20.33;84.78;100312.72;5037834;28;19913;-66
2022/06/09 08:34:57;;;;;;;;;;;;;;;20.44;84.84;100310.50;5042334;28;20385;-67
2022/06/09 08:37:22;;;;;;;;;;;;;;;20.51;84.13;100313.06;5044541;28;19936;-66
2022/06/09 08:39:47;;;;;;;;;;;;;;;20.61;82.61;100320.22;5037666;28;19912;-66
2022/06/09 08:42:39;;;;;;;;;;;;;;;20.53;83.53;100322.38;5042460;28;19979;-66
2022/06/09 08:45:08;;;;;;;;;;;;;;;20.48;84.13;100324.84;5040503;28;20066;-66
2022/06/09 08:47:54;;;;;;;;;;;;;;;20.53;83.61;100327.84;5041188;28;19921;-66
2022/06/09 08:50:21;;;;;;;;;;;;;;;20.50;84.22;100336.13;5038010;28;19913;-66
2022/06/09 08:52:49;;;;;;;;;;;;;;;20.60;83.64;100343.28;5047126;28;19920;-66
2022/06/09 08:55:15;;;;;;;;;;;;;;;20.69;83.46;100340.75;5038830;28;20811;-67
2022/06/09 08:57:43;;;;;;;;;;;;;;;20.66;83.86;100341.59;5042833;28;19912;-66
2022/06/09 09:00:10;;;;;;;;;;;;;;;20.65;83.69;100348.28;5038235;28;19917;-67
2022/06/09 09:02:45;;;;;;;;;;;;;;;20.73;83.09;100351.59;5037354;28;20433;-67
2022/06/09 09:05:10;;;;;;;;;;;;;;;20.74;82.48;100358.59;5018470;28;19920;-66
2022/06/09 09:07:38;;;;;;;;;;;;;;;20.80;81.83;100363.13;5027711;28;19929;-66
2022/06/09 09:10:19;;;;;;;;;;;;;;;20.79;81.88;100364.31;5039936;28;19923;-67
2022/06/09 09:12:56;;;;;;;;;;;;;;;20.74;82.45;100359.38;5032903;28;19978;-66
2022/06/09 09:15:27;;;;;;;;;;;;;;;20.80;83.23;100363.13;5035416;28;20320;-66
2022/06/09 09:17:52;;;;;;;;;;;;;;;20.90;82.81;100362.06;5037400;28;19913;-66
2022/06/09 09:20:38;;;;;;;;;;;;;;;21.04;81.51;100369.16;5040624;28;20225;-66
2022/06/09 09:23:21;;;;;;;;;;;;;;;21.06;81.74;100369.50;5026930;28;19966;-66
2022/06/09 09:25:47;;;;;;;;;;;;;;;21.27;80.52;100368.91;5008706;28;19935;-67
2022/06/09 09:28:18;;;;;;;;;;;;;;;21.32;80.22;100371.88;5019888;28;19921;-66
2022/06/09 09:30:44;;;;;;;;;;;;;;;21.37;80.27;100378.78;5021506;28;20293;-67
2022/06/09 09:33:14;;;;;;;;;;;;;;;21.45;79.54;100380.91;5040836;28;19913;-66
2022/06/09 09:35:40;;;;;;;;;;;;;;;21.30;79.46;100387.22;5040383;28;20343;-66
2022/06/09 09:38:06;;;;;;;;;;;;;;;21.40;79.48;100395.16;5034849;28;19965;-66
2022/06/09 09:40:33;;;;;;;;;;;;;;;21.46;79.48;100400.88;5042223;28;20334;-66
2022/06/09 09:43:00;;;;;;;;;;;;;;;21.55;79.15;100393.53;5040097;28;20435;-67
2022/06/09 09:45:36;;;;;;;;;;;;;;;21.66;78.13;100401.44;5039277;28;20361;-66
2022/06/09 09:48:17;;;;;;;;;;;;;;;21.67;77.58;100405.72;5037316;28;19913;-66
2022/06/09 09:50:53;;;;;;;;;;;;;;;21.74;77.43;100415.75;5037348;28;20449;-66
2022/06/09 09:53:19;;;;;;;;;;;;;;;21.58;77.05;100414.59;5024064;28;20289;-66
2022/06/09 09:56:01;;;;;;;;;;;;;;;21.72;77.24;100405.19;5036858;28;19926;-66
2022/06/09 09:58:28;;;;;;;;;;;;;;;21.78;77.56;100413.63;5026361;28;19924;-66
2022/06/09 10:01:16;;;;;;;;;;;;;;;21.88;77.34;100412.59;5090685;27;20019;-65
2022/06/09 10:09:28;;;;;;;;;;;;;;;22.22;76.75;100415.47;5057248;28;19987;-65
2022/06/09 10:11:55;;;;;;;;;;;;;;;22.33;75.06;100424.91;5057623;28;20361;-65
2022/06/09 10:14:20;;;;;;;;;;;;;;;22.45;73.10;100426.09;5059745;28;19940;-65
2022/06/09 10:16:49;;;;;;;;;;;;;;;22.34;73.43;100431.91;5063203;28;19920;-65
2022/06/09 10:19:17;;;;;;;;;;;;;;;22.42;72.99;100430.50;5083817;28;19921;-65
2022/06/09 10:21:48;;;;;;;;;;;;;;;22.43;72.86;100439.50;5058292;28;19982;-66
2022/06/09 10:24:15;;;;;;;;;;;;;;;22.38;72.84;100435.31;5052162;28;19927;-65
2022/06/09 10:26:41;;;;;;;;;;;;;;;22.41;73.73;100441.91;5056606;28;20335;-65
2022/06/09 10:29:20;;;;;;;;;;;;;;;22.30;74.47;100455.97;5061727;28;19917;-65
2022/06/09 10:31:58;;;;;;;;;;;;;;;22.22;74.53;100449.16;5069920;28;20388;-65
2022/06/09 10:34:26;;;;;;;;;;;;;;;22.41;74.42;100461.88;5070172;28;19952;-65
2022/06/09 10:37:01;;;;;;;;;;;;;;;22.74;74.15;100454.22;5051708;28;20015;-65
2022/06/09 10:39:32;;;;;;;;;;;;;;;23.14;73.65;100454.41;5056554;28;19921;-65
2022/06/09 10:42:02;;;;;;;;;;;;;;;23.53;71.67;100464.84;5070856;28;20123;-65
2022/06/09 10:44:37;;;;;;;;;;;;;;;23.65;70.30;100461.28;5055035;28;20024;-65
2022/06/09 10:55:49;;;;;;;;;;;;;;;23.34;67.76;100467.91;5051347;28;19959;-65
2022/06/09 10:58:27;;;;;;;;;;;;;;;23.42;68.94;100460.94;5059044;28;19917;-65
2022/06/09 11:00:53;;;;;;;;;;;;;;;23.54;67.90;100476.63;5052644;28;19924;-65
2022/06/09 11:03:30;;;;;;;;;;;;;;;23.49;67.41;100466.97;5056277;28;20413;-65
2022/06/09 11:06:01;;;;;;;;;;;;;;;23.41;67.29;100479.41;5056340;28;19925;-65
2022/06/09 11:08:35;;;;;;;;;;;;;;;23.30;67.71;100485.28;5057019;28;19916;-65
2022/06/09 11:11:01;;;;;;;;;;;;;;;23.17;69.84;100489.28;5042941;28;19963;-65
2022/06/09 11:13:41;;;;;;;;;;;;;;;23.06;70.15;100489.63;5040186;28;19970;-65
2022/06/09 11:16:11;;;;;;;;;;;;;;;23.12;69.26;100498.06;5070060;28;20251;-65
2022/06/09 11:18:41;;;;;;;;;;;;;;;23.10;69.53;100495.00;5039355;28;19945;-65
2022/06/09 11:21:15;;;;;;;;;;;;;;;23.11;68.10;100497.28;5033089;28;19964;-65
2022/06/09 11:24:02;;;;;;;;;;;;;;;23.11;67.76;100496.53;5038539;28;19917;-65
2022/06/09 11:26:33;;;;;;;;;;;;;;;23.13;68.19;100503.13;5038010;28;20042;-65
2022/06/09 11:29:02;;;;;;;;;;;;;;;23.11;68.87;100505.53;5039846;28;19921;-65
2022/06/09 11:31:27;;;;;;;;;;;;;;;23.18;69.63;100501.78;5043218;28;20494;-65
2022/06/09 11:33:58;;;;;;;;;;;;;;;23.33;68.60;100516.63;5037512;28;19920;-65
2022/06/09 11:36:33;;;;;;;;;;;;;;;23.08;68.65;100520.19;5038626;28;20029;-65
2022/06/09 11:39:24;;;;;;;;;;;;;;;22.99;68.01;100519.31;5046675;28;19928;-66
2022/06/09 11:41:50;;;;;;;;;;;;;;;23.00;67.10;100529.88;5056733;28;19952;-66
2022/06/09 11:44:18;;;;;;;;;;;;;;;22.86;67.93;100533.06;5031894;28;21004;-65
2022/06/09 11:46:44;;;;;;;;;;;;;;;22.91;67.96;100529.78;5045143;28;20085;-65
2022/06/09 11:49:21;;;;;;;;;;;;;;;22.91;67.87;100527.03;5042762;28;19959;-65
2022/06/09 11:51:47;;;;;;;;;;;;;;;23.00;68.64;100526.34;5042055;28;20377;-65
2022/06/09 11:54:31;;;;;;;;;;;;;;;23.19;67.93;100534.31;5041753;28;20019;-65
2022/06/09 11:57:15;;;;;;;;;;;;;;;23.32;66.02;100534.34;5036491;28;19925;-64
2022/06/09 11:59:59;;;;;;;;;;;;;;;23.61;67.06;100534.13;5040238;28;19928;-65
2022/06/09 12:02:40;;;;;;;;;;;;;;;23.80;65.07;100541.28;5042019;28;20043;-65
2022/06/09 12:05:11;;;;;;;;;;;;;;;23.78;65.10;100541.75;5039387;28;19916;-65
2022/06/09 12:07:40;;;;;;;;;;;;;;;23.83;64.97;100541.16;5043914;28;19917;-65
2022/06/09 12:10:17;;;;;;;;;;;;;;;23.87;65.48;100552.03;5043222;28;20342;-65
2022/06/09 12:12:44;;;;;;;;;;;;;;;23.87;65.52;100547.31;5042548;28;19924;-65
2022/06/09 12:15:15;;;;;;;;;;;;;;;23.68;66.67;100548.38;5036085;28;19917;-65
2022/06/09 12:17:59;;;;;;;;;;;;;;;23.73;65.33;100552.56;5037304;28;20405;-65
2022/06/09 12:20:27;;;;;;;;;;;;;;;23.77;64.36;100550.44;5041425;28;19925;-67
2022/06/09 12:23:00;;;;;;;;;;;;;;;23.77;64.17;100550.44;5037216;28;20265;-65
2022/06/09 12:25:28;;;;;;;;;;;;;;;23.65;65.14;100554.78;5037426;28;19974;-65
2022/06/09 12:27:54;;;;;;;;;;;;;;;23.79;63.57;100548.03;5040009;28;20397;-65
2022/06/09 12:30:26;;;;;;;;;;;;;;;23.87;63.57;100554.78;5039351;28;19916;-65
2022/06/09 12:33:11;;;;;;;;;;;;;;;23.92;63.74;100549.50;5043429;28;19916;-65
2022/06/09 12:35:50;;;;;;;;;;;;;;;24.07;64.08;100564.31;5044976;28;19917;-65
2022/06/09 12:38:28;;;;;;;;;;;;;;;24.34;64.89;100557.41;5039609;28;19964;-65
2022/06/09 12:40:55;;;;;;;;;;;;;;;24.49;61.90;100559.19;5037231;28;20023;-65
2022/06/09 12:43:23;;;;;;;;;;;;;;;24.52;61.64;100563.78;5038328;28;19921;-65
2022/06/09 12:46:06;;;;;;;;;;;;;;;24.61;61.46;100561.06;5036238;28;20066;-65
2022/06/09 12:48:33;;;;;;;;;;;;;;;24.57;59.77;100560.44;5040508;28;19916;-65
2022/06/09 12:50:59;;;;;;;;;;;;;;;24.67;59.50;100570.28;5046779;28;19920;-65
2022/06/09 12:53:27;;;;;;;;;;;;;;;24.75;60.40;100573.56;5047366;28;19924;-65
2022/06/09 12:55:54;;;;;;;;;;;;;;;24.76;59.67;100575.84;5048130;28;19920;-65
2022/06/09 12:58:38;;;;;;;;;;;;;;;24.91;60.20;100579.56;5045538;28;19921;-65
2022/06/09 13:01:05;;;;;;;;;;;;;;;24.91;59.82;100582.34;5041639;28;19974;-65
2022/06/09 13:03:33;;;;;;;;;;;;;;;25.03;59.06;100591.72;5045260;28;19916;-65
2022/06/09 13:06:11;;;;;;;;;;;;;;;25.12;58.63;100591.75;5041064;28;19923;-65
2022/06/09 13:08:42;;;;;;;;;;;;;;;25.17;57.05;100595.88;5034112;28;19923;-65